createdAt,value
2022-12-14T00:02:18.196Z,76.33
2022-12-14T00:04:46.875Z,76.38
2022-12-14T00:07:15.644Z,75.96
2022-12-14T00:09:44.217Z,76.30
2022-12-14T00:12:12.754Z,75.94
2022-12-14T00:14:42.117Z,76.23
2022-12-14T00:17:10.887Z,75.97
2022-12-14T00:19:41.136Z,76.28
2022-12-14T00:22:09.765Z,76.07
2022-12-14T00:24:38.495Z,76.35
2022-12-14T00:27:07.046Z,76.00
2022-12-14T00:29:35.682Z,76.09
2022-12-14T00:32:04.427Z,76.24
2022-12-14T00:34:33.264Z,76.17
2022-12-14T00:37:03.373Z,75.96
2022-12-14T00:39:32.055Z,75.84
2022-12-14T00:42:00.575Z,76.26
2022-12-14T00:44:29.204Z,75.89
2022-12-14T00:46:57.954Z,75.60
2022-12-14T00:49:26.702Z,76.17
2022-12-14T00:51:55.234Z,76.13
2022-12-14T00:54:25.476Z,75.71
2022-12-14T00:56:54.003Z,75.75
2022-12-14T00:59:27.114Z,75.68
2022-12-14T01:01:58.548Z,75.74
2022-12-14T01:04:27.303Z,76.20
2022-12-14T01:06:56.634Z,75.95
2022-12-14T01:09:27.557Z,76.40
2022-12-14T01:11:56.285Z,76.05
2022-12-14T01:14:24.887Z,76.19
2022-12-14T01:16:53.525Z,75.86
2022-12-14T01:19:22.064Z,75.67
2022-12-14T01:21:50.643Z,75.75
2022-12-14T01:24:19.263Z,76.13
2022-12-14T01:26:49.213Z,76.07
2022-12-14T01:29:17.907Z,76.08
2022-12-14T01:31:48.701Z,76.31
2022-12-14T01:34:18.244Z,76.22
2022-12-14T01:36:46.914Z,75.70
2022-12-14T01:39:17.112Z,75.80
2022-12-14T01:41:49.656Z,76.03
2022-12-14T01:44:40.506Z,75.86
2022-12-14T01:47:18.782Z,76.31
2022-12-14T01:49:53.938Z,76.61
2022-12-14T01:52:27.264Z,76.45
2022-12-14T01:55:00.234Z,76.27
2022-12-14T01:57:32.127Z,76.00
2022-12-14T02:00:07.192Z,75.97
2022-12-14T02:02:39.872Z,76.38
2022-12-14T02:05:11.122Z,76.03
2022-12-14T02:07:40.945Z,76.33
2022-12-14T02:10:11.184Z,76.46
2022-12-14T02:12:45.293Z,76.67
2022-12-14T02:15:14.733Z,76.43
2022-12-14T02:17:46.605Z,76.44
2022-12-14T02:20:17.325Z,76.30
2022-12-14T02:23:10.845Z,76.18
2022-12-14T02:26:13.365Z,76.25
2022-12-14T02:29:17.689Z,76.37
2022-12-14T02:31:58.413Z,76.55
2022-12-14T02:34:40.514Z,76.72
2022-12-14T02:37:15.511Z,77.02
2022-12-14T02:39:57.468Z,77.02
2022-12-14T02:42:40.694Z,76.38
2022-12-14T02:45:14.004Z,76.86
2022-12-14T02:47:54.687Z,76.70
2022-12-14T02:50:31.252Z,76.69
2022-12-14T02:53:09.364Z,77.32
2022-12-14T02:55:42.372Z,77.00
2022-12-14T02:58:17.784Z,76.80
2022-12-14T03:00:46.996Z,76.96
2022-12-14T03:03:17.238Z,77.07
2022-12-14T03:05:56.915Z,77.26
2022-12-14T03:08:27.486Z,77.03
2022-12-14T03:10:59.837Z,76.76
2022-12-14T03:13:34.454Z,76.87
2022-12-14T03:16:11.166Z,77.05
2022-12-14T03:18:46.123Z,76.44
2022-12-14T03:21:18.765Z,76.75
2022-12-14T03:23:50.928Z,76.68
2022-12-14T03:26:26.536Z,76.44
2022-12-14T03:29:01.166Z,76.59
2022-12-14T03:31:36.259Z,76.71
2022-12-14T03:34:13.569Z,76.45
2022-12-14T03:36:45.705Z,76.67
2022-12-14T03:39:20.095Z,76.71
2022-12-14T03:41:58.682Z,77.13
2022-12-14T03:44:48.993Z,76.86
2022-12-14T03:47:35.086Z,77.16
2022-12-14T03:50:10.665Z,76.77
2022-12-14T03:52:44.256Z,77.32
2022-12-14T03:55:23.735Z,77.19
2022-12-14T03:58:11.538Z,77.42
2022-12-14T04:00:50.509Z,77.42
2022-12-14T04:03:28.211Z,77.44
2022-12-14T04:06:02.587Z,77.30
2022-12-14T04:08:40.343Z,77.20
2022-12-14T04:11:25.547Z,76.99
2022-12-14T04:14:10.716Z,77.48
2022-12-14T04:16:54.142Z,77.50
2022-12-14T04:19:30.484Z,77.08
2022-12-14T04:22:05.976Z,77.16
2022-12-14T04:24:50.192Z,77.59
2022-12-14T04:27:24.303Z,77.39
2022-12-14T04:29:58.509Z,76.79
2022-12-14T04:32:32.915Z,76.69
2022-12-14T04:35:08.248Z,77.28
2022-12-14T04:37:41.676Z,77.32
2022-12-14T04:40:15.759Z,77.07
2022-12-14T04:42:51.004Z,76.65
2022-12-14T04:45:23.847Z,76.43
2022-12-14T04:47:59.007Z,76.63
2022-12-14T04:50:32.303Z,76.40
2022-12-14T04:53:09.479Z,76.68
2022-12-14T04:55:42.125Z,76.71
2022-12-14T04:58:16.235Z,77.22
2022-12-14T05:00:59.818Z,76.77
2022-12-14T05:03:33.412Z,76.73
2022-12-14T05:06:11.905Z,76.67
2022-12-14T05:09:08.694Z,76.82
2022-12-14T05:11:53.510Z,76.85
2022-12-14T05:14:33.234Z,77.39
2022-12-14T05:17:08.853Z,77.30
2022-12-14T05:19:39.284Z,77.36
2022-12-14T05:22:09.846Z,77.06
2022-12-14T05:24:39.955Z,77.32
2022-12-14T05:27:09.454Z,77.19
2022-12-14T05:29:37.944Z,77.32
2022-12-14T05:32:06.874Z,76.97
2022-12-14T05:34:35.964Z,77.45
2022-12-14T05:37:04.584Z,77.28
2022-12-14T05:39:33.177Z,77.53
2022-12-14T05:42:03.206Z,77.32
2022-12-14T05:44:31.809Z,77.42
2022-12-14T05:47:00.314Z,77.12
2022-12-14T05:49:28.926Z,77.20
2022-12-14T05:51:58.014Z,77.80
2022-12-14T05:54:26.565Z,77.57
2022-12-14T05:56:55.131Z,77.77
2022-12-14T05:59:25.373Z,78.14
2022-12-14T06:01:54.108Z,77.83
2022-12-14T06:04:22.835Z,78.36
2022-12-14T06:06:51.814Z,78.03
2022-12-14T06:09:20.905Z,78.47
2022-12-14T06:11:50.499Z,78.46
2022-12-14T06:14:19.014Z,78.52
2022-12-14T06:16:49.129Z,78.37
2022-12-14T06:19:17.948Z,78.82
2022-12-14T06:21:46.486Z,78.66
2022-12-14T06:24:15.553Z,78.35
2022-12-14T06:26:44.289Z,78.86
2022-12-14T06:29:16.945Z,78.99
2022-12-14T06:31:48.977Z,78.83
2022-12-14T06:34:24.830Z,79.13
2022-12-14T06:36:56.837Z,79.05
2022-12-14T06:39:25.356Z,79.15
2022-12-14T06:41:54.057Z,78.94
2022-12-14T06:44:22.778Z,78.80
2022-12-14T06:46:51.528Z,78.61
2022-12-14T06:49:21.995Z,78.77
2022-12-14T06:51:51.080Z,78.65
2022-12-14T06:54:20.961Z,78.37
2022-12-14T06:56:49.767Z,78.60
2022-12-14T06:59:18.744Z,78.32
2022-12-14T07:04:26.281Z,77.68
2022-12-14T07:06:54.948Z,77.41
2022-12-14T07:09:23.537Z,76.96
2022-12-14T07:11:52.537Z,76.82
2022-12-14T07:14:21.128Z,76.62
2022-12-14T07:16:50.549Z,76.31
2022-12-14T07:19:19.589Z,75.94
2022-12-14T07:21:51.094Z,75.91
2022-12-14T07:24:19.908Z,75.78
2022-12-14T07:26:48.568Z,75.47
2022-12-14T07:29:17.389Z,75.52
2022-12-14T07:31:49.320Z,75.17
2022-12-14T07:34:18.742Z,74.90
2022-12-14T07:36:50.439Z,74.93
2022-12-14T07:39:22.006Z,74.28
2022-12-14T07:41:52.286Z,73.94
2022-12-14T07:44:23.988Z,73.70
2022-12-14T07:46:54.221Z,73.20
2022-12-14T07:49:23.247Z,73.08
2022-12-14T07:51:53.193Z,73.16
2022-12-14T07:54:23.519Z,73.04
2022-12-14T07:56:52.232Z,72.93
2022-12-14T07:59:20.828Z,72.84
2022-12-14T08:01:49.366Z,72.50
2022-12-14T08:04:20.265Z,72.41
2022-12-14T08:06:49.747Z,72.36
2022-12-14T08:09:20.380Z,72.14
2022-12-14T08:11:50.492Z,72.04
2022-12-14T08:14:20.352Z,72.36
2022-12-14T08:16:50.575Z,72.56
2022-12-14T08:19:20.528Z,73.08
2022-12-14T08:21:49.157Z,73.48
2022-12-14T08:24:18.501Z,73.79
2022-12-14T08:26:49.128Z,74.14
2022-12-14T08:29:21.721Z,74.37
2022-12-14T08:31:50.497Z,74.36
2022-12-14T08:34:23.060Z,74.34
2022-12-14T08:36:51.853Z,73.96
2022-12-14T08:39:20.537Z,73.71
2022-12-14T08:41:49.300Z,73.02
2022-12-14T08:44:19.342Z,72.17
2022-12-14T08:46:48.146Z,71.64
2022-12-14T08:49:16.937Z,71.29
2022-12-14T08:51:45.493Z,71.10
2022-12-14T08:54:14.002Z,70.57
2022-12-14T08:56:42.729Z,70.21
2022-12-14T08:59:24.714Z,69.78
2022-12-14T09:02:00.584Z,69.45
2022-12-14T09:04:29.445Z,69.18
2022-12-14T09:06:58.129Z,68.71
2022-12-14T09:09:27.640Z,67.83
2022-12-14T09:11:56.190Z,67.58
2022-12-14T09:14:24.720Z,67.43
2022-12-14T09:16:53.198Z,67.19
2022-12-14T09:19:23.223Z,66.77
2022-12-14T09:21:51.859Z,67.24
2022-12-14T09:24:21.529Z,66.23
2022-12-14T09:26:50.544Z,65.65
2022-12-14T09:29:20.048Z,65.51
2022-12-14T09:31:48.657Z,65.46
2022-12-14T09:34:17.050Z,64.95
2022-12-14T09:36:47.140Z,64.49
2022-12-14T09:39:15.761Z,63.78
2022-12-14T09:41:56.357Z,63.73
2022-12-14T09:44:32.879Z,63.54
2022-12-14T09:47:04.120Z,63.12
2022-12-14T09:49:34.008Z,63.21
2022-12-14T09:52:05.923Z,62.89
2022-12-14T09:54:36.415Z,63.41
2022-12-14T09:57:10.308Z,63.04
2022-12-14T09:59:39.077Z,62.93
2022-12-14T10:02:30.932Z,62.85
2022-12-14T10:05:05.789Z,62.97
2022-12-14T10:07:40.437Z,63.18
2022-12-14T10:10:16.030Z,63.27
2022-12-14T10:12:50.900Z,63.25
2022-12-14T10:15:25.997Z,62.83
2022-12-14T10:18:05.555Z,62.52
2022-12-14T10:20:38.589Z,62.93
2022-12-14T10:23:16.952Z,63.02
2022-12-14T10:25:50.860Z,62.33
2022-12-14T10:28:20.628Z,62.72
2022-12-14T10:30:50.338Z,62.68
2022-12-14T10:33:22.206Z,62.53
2022-12-14T10:35:52.799Z,62.08
2022-12-14T10:38:27.456Z,62.42
2022-12-14T10:41:01.408Z,62.66
2022-12-14T10:43:40.656Z,62.51
2022-12-14T10:46:16.510Z,61.81
2022-12-14T10:48:49.032Z,62.33
2022-12-14T10:51:20.012Z,62.00
2022-12-14T10:53:53.367Z,61.49
2022-12-14T10:56:24.501Z,60.79
2022-12-14T10:59:04.314Z,60.97
2022-12-14T11:01:32.847Z,59.64
2022-12-14T11:04:01.440Z,60.12
2022-12-14T11:06:30.094Z,60.28
2022-12-14T11:08:59.763Z,60.05
2022-12-14T11:11:29.392Z,60.95
2022-12-14T11:14:08.013Z,59.59
2022-12-14T11:16:37.712Z,59.44
2022-12-14T11:19:07.749Z,59.39
2022-12-14T11:21:37.439Z,58.26
2022-12-14T11:24:07.860Z,58.57
2022-12-14T11:26:38.450Z,58.41
2022-12-14T11:29:08.461Z,57.86
2022-12-14T11:31:39.173Z,57.66
2022-12-14T11:34:08.980Z,57.86
2022-12-14T11:36:38.319Z,57.52
2022-12-14T11:39:21.040Z,58.00
2022-12-14T11:41:50.312Z,58.34
2022-12-14T11:44:26.538Z,58.04
2022-12-14T11:46:56.606Z,57.43
2022-12-14T11:49:27.105Z,57.47
2022-12-14T11:51:56.546Z,56.99
2022-12-14T11:54:26.281Z,56.98
2022-12-14T11:56:58.550Z,57.09
2022-12-14T11:59:29.770Z,57.06
2022-12-14T12:01:58.209Z,57.53
2022-12-14T12:04:26.651Z,57.44
2022-12-14T12:06:57.894Z,57.00
2022-12-14T12:09:34.537Z,56.92
2022-12-14T12:12:03.459Z,57.07
2022-12-14T12:14:36.439Z,56.95
2022-12-14T12:17:18.421Z,56.98
2022-12-14T12:19:48.279Z,56.96
2022-12-14T12:22:17.262Z,57.63
2022-12-14T12:25:16.797Z,57.42
2022-12-14T12:27:42.676Z,56.85
2022-12-14T12:30:20.933Z,57.03
2022-12-14T12:32:52.734Z,57.45
2022-12-14T12:35:24.134Z,57.30
2022-12-14T12:37:54.815Z,57.01
2022-12-14T12:40:27.076Z,57.27
2022-12-14T12:42:59.672Z,57.20
2022-12-14T12:45:32.519Z,57.03
2022-12-14T12:48:04.233Z,57.47
2022-12-14T12:50:36.244Z,56.99
2022-12-14T12:53:07.612Z,57.34
2022-12-14T12:55:39.503Z,56.68
2022-12-14T12:58:10.493Z,57.39
2022-12-14T13:00:39.579Z,57.14
2022-12-14T13:03:11.347Z,57.64
2022-12-14T13:05:46.721Z,57.26
2022-12-14T13:08:19.536Z,57.05
2022-12-14T13:13:44.296Z,57.59
2022-12-14T13:16:16.037Z,57.84
2022-12-14T13:19:01.858Z,57.68
2022-12-14T13:21:38.803Z,57.64
2022-12-14T13:24:08.632Z,58.14
2022-12-14T13:26:58.110Z,57.98
2022-12-14T13:29:45.025Z,58.16
2022-12-14T13:32:21.642Z,58.37
2022-12-14T13:34:55.995Z,58.86
2022-12-14T13:37:34.576Z,59.22
2022-12-14T13:40:13.811Z,59.52
2022-12-14T13:42:52.064Z,59.74
2022-12-14T13:45:22.076Z,60.25
2022-12-14T13:47:54.042Z,60.15
2022-12-14T13:50:35.717Z,60.57
2022-12-14T13:53:06.703Z,60.34
2022-12-14T13:55:35.994Z,61.46
2022-12-14T13:58:11.624Z,60.79
2022-12-14T14:00:55.096Z,61.05
2022-12-14T16:09:32.672Z,60.89
2022-12-14T16:12:06.565Z,61.40
2022-12-14T16:14:44.536Z,60.71
2022-12-14T16:17:15.714Z,61.08
2022-12-14T16:19:59.525Z,61.30
2022-12-14T16:22:33.320Z,61.73
2022-12-14T16:25:19.241Z,61.86
2022-12-14T16:27:50.531Z,61.78
2022-12-14T16:30:26.680Z,61.97
2022-12-14T16:33:07.825Z,62.07
2022-12-14T16:35:39.364Z,62.12
2022-12-14T16:38:14.657Z,62.02
2022-12-14T16:40:55.454Z,62.36
2022-12-14T16:43:34.905Z,62.59
2022-12-14T16:46:22.050Z,62.49
2022-12-14T16:49:16.415Z,63.29
2022-12-14T16:52:06.422Z,63.24
2022-12-14T16:54:35.641Z,63.07
2022-12-14T16:57:09.454Z,63.46
2022-12-14T16:59:43.574Z,63.53
2022-12-14T17:02:29.664Z,62.93
2022-12-14T17:05:00.149Z,63.14
2022-12-14T17:07:31.555Z,63.29
2022-12-14T17:10:00.442Z,63.12
2022-12-14T17:12:30.623Z,62.88
2022-12-14T17:15:00.164Z,62.87
2022-12-14T17:17:33.901Z,63.16
2022-12-14T17:20:05.857Z,63.24
2022-12-14T17:22:38.204Z,63.15
2022-12-14T17:25:07.718Z,63.49
2022-12-14T17:27:37.891Z,63.39
2022-12-14T17:30:08.932Z,63.55
2022-12-14T17:32:37.753Z,63.72
2022-12-14T17:35:09.553Z,63.47
2022-12-14T17:37:38.251Z,64.61
2022-12-14T17:40:07.825Z,64.53
2022-12-14T17:42:39.411Z,64.86
2022-12-14T17:45:19.053Z,64.74
2022-12-14T17:47:47.850Z,65.33
2022-12-14T17:50:18.176Z,65.13
2022-12-14T17:52:51.447Z,65.11
2022-12-14T17:55:22.514Z,65.57
2022-12-14T17:57:53.073Z,66.17
2022-12-14T18:00:34.159Z,65.98
2022-12-14T18:03:04.778Z,66.64
2022-12-14T18:05:34.129Z,66.28
2022-12-14T18:08:02.835Z,66.82
2022-12-14T18:10:32.130Z,66.96
2022-12-14T18:13:03.955Z,66.66
2022-12-14T18:15:39.017Z,66.56
2022-12-14T18:18:08.272Z,67.33
2022-12-14T18:20:44.793Z,67.38
2022-12-14T18:23:19.614Z,67.49
2022-12-14T18:25:50.215Z,67.63
2022-12-14T18:28:21.211Z,68.33
2022-12-14T18:30:52.498Z,68.12
2022-12-14T18:33:23.036Z,68.06
2022-12-14T18:35:52.657Z,68.64
2022-12-14T18:38:23.184Z,69.02
2022-12-14T18:40:54.474Z,69.56
2022-12-14T18:43:26.386Z,69.63
2022-12-14T18:45:57.086Z,70.12
2022-12-14T18:48:26.551Z,70.71
2022-12-14T18:50:56.422Z,71.12
2022-12-14T18:53:27.394Z,71.03
2022-12-14T18:55:56.511Z,71.03
2022-12-14T18:58:28.562Z,71.41
2022-12-14T19:00:59.837Z,71.12
2022-12-14T19:03:31.107Z,71.34
2022-12-14T19:06:42.149Z,71.17
2022-12-14T19:08:58.397Z,71.21
2022-12-14T19:11:31.801Z,71.22
2022-12-14T19:14:02.995Z,71.76
2022-12-14T19:16:32.388Z,71.46
2022-12-14T19:19:01.448Z,71.97
2022-12-14T19:21:31.960Z,71.86
2022-12-14T19:24:01.548Z,72.38
2022-12-14T19:26:32.498Z,72.73
2022-12-14T19:29:02.857Z,72.87
2022-12-14T19:31:31.723Z,72.58
2022-12-14T19:34:02.260Z,72.94
2022-12-14T19:36:31.356Z,73.24
2022-12-14T19:39:00.706Z,73.63
2022-12-14T19:41:29.810Z,73.46
2022-12-14T19:43:58.837Z,74.02
2022-12-14T19:46:29.624Z,73.95
2022-12-14T19:48:59.889Z,74.22
2022-12-14T19:51:28.572Z,74.39
2022-12-14T19:53:57.159Z,74.70
2022-12-14T19:56:25.792Z,75.35
2022-12-14T19:58:58.149Z,75.69
2022-12-14T20:01:32.764Z,75.28
2022-12-14T20:04:01.896Z,75.80
2022-12-14T20:06:30.750Z,76.06
2022-12-14T20:09:00.000Z,76.12
2022-12-14T20:11:29.319Z,76.16
2022-12-14T20:14:03.135Z,76.84
2022-12-14T20:16:33.830Z,76.17
2022-12-14T20:19:02.534Z,76.22
2022-12-14T20:21:31.160Z,76.82
2022-12-14T20:24:00.380Z,76.66
2022-12-14T20:26:29.740Z,76.62
2022-12-14T20:29:01.127Z,76.88
2022-12-14T20:31:29.913Z,76.45
2022-12-14T20:34:01.907Z,76.83
2022-12-14T20:36:32.591Z,76.57
2022-12-14T20:39:02.743Z,76.44
2022-12-14T20:41:32.020Z,77.43
2022-12-14T20:44:02.148Z,77.31
2022-12-14T20:46:33.342Z,76.65
2022-12-14T20:49:06.150Z,77.68
2022-12-14T20:51:37.629Z,76.94
2022-12-14T20:54:08.242Z,77.16
2022-12-14T20:56:37.385Z,77.27
2022-12-14T20:59:06.692Z,77.94
2022-12-14T21:01:36.874Z,77.79
2022-12-14T21:04:07.412Z,77.66
2022-12-14T21:06:39.313Z,77.61
2022-12-14T21:09:11.934Z,77.50
2022-12-14T21:11:55.253Z,78.13
2022-12-14T21:14:25.892Z,77.91
2022-12-14T21:16:55.004Z,77.86
2022-12-14T21:19:24.973Z,78.02
2022-12-14T21:21:55.534Z,78.07
2022-12-14T21:25:00.403Z,77.97
2022-12-14T21:27:20.683Z,78.51
2022-12-14T21:29:50.494Z,77.95
2022-12-14T21:32:20.440Z,77.99
2022-12-14T21:34:50.914Z,78.33
2022-12-14T21:37:20.541Z,77.99
2022-12-14T21:39:54.218Z,78.03
2022-12-14T21:42:24.080Z,78.16
2022-12-14T21:44:55.492Z,77.98
2022-12-14T21:47:26.915Z,78.07
2022-12-14T21:49:57.800Z,78.64
2022-12-14T21:52:28.090Z,78.31
2022-12-14T21:54:58.722Z,78.78
2022-12-14T21:57:37.250Z,78.25
2022-12-14T22:00:07.346Z,78.37
2022-12-14T22:02:43.033Z,78.52
2022-12-14T22:05:13.653Z,79.09
2022-12-14T22:07:42.346Z,78.99
2022-12-14T22:10:11.224Z,78.82
2022-12-14T22:12:40.596Z,79.10
2022-12-14T22:15:10.383Z,78.78
2022-12-14T22:17:39.072Z,79.31
2022-12-14T22:20:08.795Z,79.34
2022-12-14T22:22:40.045Z,78.76
2022-12-14T22:25:09.894Z,79.20
2022-12-14T22:27:38.128Z,78.82
2022-12-14T22:30:09.003Z,78.93
2022-12-14T22:32:37.648Z,79.05
2022-12-14T22:35:09.785Z,78.91
2022-12-14T22:37:41.132Z,78.83
2022-12-14T22:40:12.783Z,79.42
2022-12-14T22:42:42.033Z,78.99
2022-12-14T22:45:11.851Z,78.97
2022-12-14T22:47:40.411Z,79.30
2022-12-14T22:50:10.421Z,79.22
2022-12-14T22:52:40.683Z,79.16
2022-12-14T22:55:10.212Z,79.36
2022-12-14T22:57:42.092Z,78.99
2022-12-14T23:00:16.136Z,79.49
2022-12-14T23:02:48.599Z,79.62
2022-12-14T23:05:18.714Z,80.08
2022-12-14T23:07:48.821Z,79.71
2022-12-14T23:10:28.515Z,79.89
2022-12-14T23:13:07.114Z,79.27
2022-12-14T23:15:46.514Z,79.75
2022-12-14T23:18:25.332Z,79.49
2022-12-14T23:21:04.296Z,79.26
2022-12-14T23:23:44.252Z,79.63
2022-12-14T23:26:22.995Z,79.45
2022-12-14T23:29:00.693Z,79.85
2022-12-14T23:31:39.212Z,79.45
2022-12-14T23:34:17.662Z,79.25
2022-12-14T23:36:56.273Z,79.78
2022-12-14T23:39:36.572Z,79.74
2022-12-14T23:42:15.325Z,79.85
2022-12-14T23:44:54.142Z,79.22
2022-12-14T23:47:31.750Z,79.18
2022-12-14T23:50:10.583Z,79.92
2022-12-14T23:52:49.132Z,80.17
2022-12-14T23:55:29.172Z,80.06
2022-12-14T23:58:08.920Z,79.63
